Time;durP1;ratioP1;P1;durP2;ratioP2;P2;SDS_P1;SDS_P2;PMS_P1;PMS_P2;Temp;Humidity;BMP_temperature;BMP_pressure;BME280_temperature;BME280_humidity;BME280_pressure;Samples;Min_cycle;Max_cycle;Signal;HPM_P1;HPM_P2
2023/07/06 00:01:02;;;;;;;8.80;2.70;;;24.30;74.50;;;;;;5093019;28;20023;-78
2023/07/06 00:03:31;;;;;;;4.93;2.70;;;24.30;74.70;;;;;;5092739;28;20357;-78
2023/07/06 00:05:57;;;;;;;2.80;2.22;;;24.30;75.40;;;;;;5093050;28;20020;-77
2023/07/06 00:08:23;;;;;;;4.40;2.28;;;24.30;75.80;;;;;;5093177;28;20093;-77
2023/07/06 00:10:49;;;;;;;3.33;2.30;;;24.30;76.40;;;;;;5092748;28;20023;-77
2023/07/06 00:13:16;;;;;;;5.57;2.28;;;24.30;76.60;;;;;;5092968;28;20534;-77
2023/07/06 00:15:42;;;;;;;7.45;2.97;;;24.30;76.80;;;;;;5092419;28;20509;-78
2023/07/06 00:18:09;;;;;;;3.90;2.50;;;24.30;76.70;;;;;;5092718;28;20062;-77
2023/07/06 00:20:37;;;;;;;3.13;2.17;;;24.30;76.70;;;;;;5092713;28;20103;-77
2023/07/06 00:23:08;;;;;;;5.97;2.33;;;24.30;76.70;;;;;;5092965;28;20054;-78
2023/07/06 00:25:35;;;;;;;8.90;2.30;;;24.30;76.60;;;;;;5093025;28;20016;-78
2023/07/06 00:28:04;;;;;;;4.53;2.42;;;24.30;77.20;;;;;;5074102;28;20538;-78
2023/07/06 00:30:52;;;;;;;6.13;2.25;;;24.30;76.60;;;;;;5092411;28;20085;-78
2023/07/06 00:33:18;;;;;;;5.53;2.22;;;24.30;76.70;;;;;;5092365;28;20062;-78
2023/07/06 00:35:44;;;;;;;7.72;2.10;;;24.40;76.90;;;;;;5092578;28;20052;-78
2023/07/06 00:38:15;;;;;;;3.35;2.00;;;24.30;76.90;;;;;;5092627;28;20031;-79
2023/07/06 00:40:44;;;;;;;6.40;2.30;;;24.30;76.90;;;;;;5092741;28;20051;-78
2023/07/06 00:43:20;;;;;;;5.18;2.53;;;24.30;76.90;;;;;;5092734;28;20096;-79
2023/07/06 00:45:49;;;;;;;6.80;2.80;;;24.30;77.10;;;;;;5092662;28;20048;-78
2023/07/06 00:48:20;;;;;;;6.10;2.47;;;24.30;77.20;;;;;;5092511;28;20024;-77
2023/07/06 00:50:52;;;;;;;6.55;2.63;;;24.30;77.20;;;;;;5092432;28;20330;-78
2023/07/06 00:53:19;;;;;;;6.38;2.45;;;24.30;76.90;;;;;;5092114;28;20109;-77
2023/07/06 00:55:45;;;;;;;9.68;2.90;;;24.20;76.80;;;;;;5092420;28;20549;-77
2023/07/06 00:58:18;;;;;;;5.22;2.88;;;24.20;76.80;;;;;;5091157;28;20099;-78
2023/07/06 01:00:46;;;;;;;10.38;2.92;;;24.20;76.90;;;;;;5072283;28;20034;-77
2023/07/06 01:03:12;;;;;;;2.80;2.45;;;24.20;77.20;;;;;;5089569;28;20024;-77
2023/07/06 01:05:40;;;;;;;7.00;2.85;;;24.10;77.20;;;;;;5091434;28;20017;-77
2023/07/06 01:08:14;;;;;;;4.72;2.42;;;24.10;77.30;;;;;;5094037;28;20036;-77
2023/07/06 01:10:41;;;;;;;5.38;2.92;;;24.10;77.50;;;;;;5096410;28;20024;-77
2023/07/06 01:13:07;;;;;;;5.90;2.85;;;24.00;77.50;;;;;;5099006;28;20046;-77
2023/07/06 01:15:38;;;;;;;4.15;2.05;;;24.00;77.60;;;;;;5116230;28;20040;-76
2023/07/06 01:18:11;;;;;;;5.85;2.58;;;24.00;77.80;;;;;;5116593;28;20031;-78
2023/07/06 01:20:44;;;;;;;5.72;2.60;;;24.00;78.10;;;;;;5116380;28;20042;-77
2023/07/06 01:23:24;;;;;;;6.38;2.90;;;24.00;78.50;;;;;;5116489;28;20020;-77
2023/07/06 01:25:59;;;;;;;5.40;2.55;;;24.00;78.90;;;;;;5116735;28;20426;-78
2023/07/06 01:28:50;;;;;;;6.10;2.80;;;23.90;79.10;;;;;;5116540;28;20575;-77
2023/07/06 01:31:47;;;;;;;3.10;2.42;;;23.90;79.80;;;;;;5116495;28;20027;-78
2023/07/06 01:34:36;;;;;;;5.68;2.40;;;23.90;80.30;;;;;;5116192;28;20070;-78
2023/07/06 01:37:09;;;;;;;9.63;2.65;;;23.90;80.60;;;;;;5097574;28;20028;-78
2023/07/06 01:39:35;;;;;;;7.22;2.67;;;23.80;81.00;;;;;;5115987;28;20028;-78
2023/07/06 01:42:12;;;;;;;8.88;3.03;;;23.70;81.50;;;;;;5115976;28;20077;-77
2023/07/06 01:44:47;;;;;;;7.65;2.70;;;23.70;82.30;;;;;;5116652;28;20360;-78
2023/07/06 01:47:18;;;;;;;4.13;2.30;;;23.70;83.10;;;;;;5116110;28;20032;-77
2023/07/06 01:49:45;;;;;;;7.85;2.40;;;23.70;83.50;;;;;;5116114;28;20015;-78
2023/07/06 01:52:28;;;;;;;8.32;2.60;;;23.60;84.00;;;;;;5115910;28;20024;-78
2023/07/06 01:54:54;;;;;;;;;;;23.60;84.70;;;;;;5116630;28;20488;-78
2023/07/06 01:57:46;;;;;;;5.28;2.70;;;23.60;85.30;;;;;;5116040;28;19911;-76
2023/07/06 02:00:15;;;;;;;9.00;2.65;;;23.60;86.00;;;;;;5115987;28;20016;-78
2023/07/06 02:02:44;;;;;;;4.85;2.80;;;23.50;86.80;;;;;;5115949;28;20499;-78
2023/07/06 02:05:12;;;;;;;7.90;2.90;;;23.50;87.10;;;;;;5115587;28;20024;-78
2023/07/06 02:07:42;;;;;;;4.53;2.30;;;23.50;87.20;;;;;;5115754;28;20126;-79
2023/07/06 02:10:14;;;;;;;9.30;2.25;;;23.50;87.40;;;;;;5115528;28;20439;-78
2023/07/06 02:12:42;;;;;;;7.07;2.30;;;23.40;87.40;;;;;;5115680;28;20034;-79
2023/07/06 02:15:09;;;;;;;4.90;2.42;;;23.40;87.40;;;;;;5115584;28;20067;-78
2023/07/06 02:17:36;;;;;;;6.10;2.10;;;23.40;87.30;;;;;;5115767;28;20023;-79
2023/07/06 02:20:02;;;;;;;3.25;2.00;;;23.40;86.90;;;;;;5114516;28;20388;-79
2023/07/06 02:22:28;;;;;;;3.70;2.10;;;23.40;86.30;;;;;;5115349;28;20027;-78
2023/07/06 02:24:54;;;;;;;6.85;2.10;;;23.40;85.40;;;;;;5115260;28;20024;-78
2023/07/06 02:27:19;;;;;;;2.95;1.88;;;23.30;84.60;;;;;;5115413;28;20027;-78
2023/07/06 02:29:45;;;;;;;6.53;2.08;;;23.30;84.00;;;;;;5115531;28;20019;-78
2023/07/06 02:32:11;;;;;;;4.28;1.90;;;23.30;83.30;;;;;;5115213;28;20020;-78
2023/07/06 02:34:37;;;;;;;5.60;1.70;;;23.30;83.40;;;;;;5115182;28;20039;-78
2023/07/06 02:37:03;;;;;;;6.07;2.20;;;23.30;82.30;;;;;;5114929;28;20015;-77
2023/07/06 02:39:30;;;;;;;4.40;2.28;;;23.20;82.00;;;;;;5114876;28;20099;-78
2023/07/06 02:41:56;;;;;;;4.88;2.15;;;23.20;80.60;;;;;;5114990;28;20103;-78
2023/07/06 02:44:23;;;;;;;6.75;2.20;;;23.10;80.40;;;;;;5115152;28;20389;-78
2023/07/06 02:46:49;;;;;;;3.17;1.90;;;23.20;79.50;;;;;;5114921;28;20047;-78
2023/07/06 02:49:16;;;;;;;6.93;2.42;;;23.10;78.10;;;;;;5115004;28;20027;-78
2023/07/06 02:51:42;;;;;;;5.32;2.22;;;23.10;77.50;;;;;;5115035;28;20023;-78
2023/07/06 02:54:12;;;;;;;4.22;2.17;;;23.10;77.10;;;;;;5114832;28;20040;-78
2023/07/06 02:56:38;;;;;;;2.97;2.15;;;23.00;78.40;;;;;;5114692;28;20015;-79
2023/07/06 02:59:04;;;;;;;6.45;2.13;;;23.00;79.30;;;;;;5114908;28;20030;-78
2023/07/06 03:01:30;;;;;;;6.70;2.50;;;23.00;80.10;;;;;;5114758;28;20128;-78
2023/07/06 03:03:55;;;;;;;2.63;1.90;;;23.00;80.70;;;;;;5114793;28;20035;-79
2023/07/06 03:06:21;;;;;;;5.97;2.42;;;23.00;81.70;;;;;;5114449;28;20023;-78
2023/07/06 03:08:47;;;;;;;5.35;2.22;;;23.00;82.40;;;;;;5114324;28;20019;-78
2023/07/06 03:11:14;;;;;;;6.18;2.53;;;22.90;83.00;;;;;;5114281;28;20031;-78
2023/07/06 03:13:41;;;;;;;3.92;2.30;;;22.90;83.60;;;;;;5114782;28;20381;-78
2023/07/06 03:16:07;;;;;;;3.90;2.33;;;22.90;84.30;;;;;;5114268;28;20055;-78
2023/07/06 03:18:33;;;;;;;7.38;2.60;;;22.90;84.70;;;;;;5114255;28;20111;-79
2023/07/06 03:21:00;;;;;;;3.47;2.35;;;22.90;85.00;;;;;;5114250;28;20053;-78
2023/07/06 03:23:27;;;;;;;4.95;2.47;;;22.90;85.40;;;;;;5095958;28;20024;-79
2023/07/06 03:25:54;;;;;;;3.13;2.25;;;22.90;85.60;;;;;;5114188;28;20104;-79
2023/07/06 03:28:23;;;;;;;2.45;1.95;;;22.90;85.90;;;;;;5114071;28;20026;-78
2023/07/06 03:30:56;;;;;;;4.18;2.53;;;22.80;85.80;;;;;;5113872;28;20608;-79
2023/07/06 03:33:24;;;;;;;5.93;2.50;;;22.80;84.80;;;;;;5114047;28;20038;-79
2023/07/06 03:35:53;;;;;;;3.53;2.53;;;22.80;84.80;;;;;;5114191;28;20019;-78
2023/07/06 03:38:20;;;;;;;8.02;2.60;;;22.80;84.40;;;;;;5114112;28;20072;-78
2023/07/06 03:40:49;;;;;;;4.10;2.58;;;22.80;84.40;;;;;;5114268;28;20024;-78
2023/07/06 03:43:16;;;;;;;5.53;2.80;;;22.80;84.70;;;;;;5113772;28;20026;-78
2023/07/06 03:45:47;;;;;;;5.25;2.00;;;22.80;85.00;;;;;;5113739;28;20026;-78
2023/07/06 03:48:14;;;;;;;4.45;2.60;;;22.80;85.40;;;;;;5113625;28;20033;-78
2023/07/06 03:50:39;;;;;;;3.70;2.38;;;22.80;85.30;;;;;;5113781;28;20027;-78
2023/07/06 03:53:05;;;;;;;4.25;2.70;;;22.80;84.90;;;;;;5113446;28;20028;-79
2023/07/06 03:55:31;;;;;;;3.67;2.17;;;22.80;84.00;;;;;;5113529;28;20028;-79
2023/07/06 03:58:00;;;;;;;4.30;2.47;;;22.80;82.90;;;;;;5113549;28;20060;-78
2023/07/06 04:00:28;;;;;;;3.55;2.38;;;22.80;81.80;;;;;;5113177;28;20026;-77
2023/07/06 04:02:56;;;;;;;3.90;2.30;;;22.80;81.20;;;;;;5113422;28;20016;-77
2023/07/06 04:05:27;;;;;;;3.78;2.50;;;22.80;80.60;;;;;;5113431;28;20027;-77
2023/07/06 04:07:53;;;;;;;5.72;2.45;;;22.80;80.30;;;;;;5113872;28;20119;-77
2023/07/06 04:10:20;;;;;;;3.85;2.42;;;22.70;80.10;;;;;;5113252;28;20170;-77
2023/07/06 04:12:48;;;;;;;3.60;2.42;;;22.80;80.40;;;;;;5095131;28;20066;-78
2023/07/06 04:15:17;;;;;;;3.65;2.40;;;22.80;80.80;;;;;;5094750;28;20036;-78
2023/07/06 04:17:47;;;;;;;8.10;2.45;;;22.80;80.90;;;;;;5113308;28;20023;-78
2023/07/06 04:20:25;;;;;;;4.88;2.47;;;22.80;80.90;;;;;;5113088;28;20153;-78
2023/07/06 04:22:54;;;;;;;3.90;2.75;;;22.80;81.20;;;;;;5113242;28;20023;-78
2023/07/06 04:25:29;;;;;;;3.47;2.10;;;22.80;80.40;;;;;;5113267;28;20103;-78
2023/07/06 04:28:02;;;;;;;3.80;2.28;;;22.80;80.10;;;;;;5113278;28;20019;-78
2023/07/06 04:30:29;;;;;;;3.35;2.33;;;22.80;79.70;;;;;;5113322;28;20028;-78
2023/07/06 04:32:55;;;;;;;3.60;2.60;;;22.80;79.10;;;;;;5113113;28;20528;-78
2023/07/06 04:35:21;;;;;;;4.55;2.22;;;22.80;79.00;;;;;;5113011;28;20020;-78
2023/07/06 04:37:49;;;;;;;3.78;2.00;;;22.80;79.00;;;;;;5113197;28;20106;-78
2023/07/06 04:40:19;;;;;;;2.83;2.10;;;22.80;79.10;;;;;;5112944;28;20148;-78
2023/07/06 04:42:52;;;;;;;3.38;2.15;;;22.80;79.50;;;;;;5114355;28;20072;-79
2023/07/06 04:45:21;;;;;;;4.70;2.40;;;22.90;79.70;;;;;;5117458;28;20054;-78
2023/07/06 04:47:48;;;;;;;3.90;2.60;;;22.90;80.00;;;;;;5116842;28;20055;-78
2023/07/06 04:50:22;;;;;;;5.38;2.20;;;22.90;80.20;;;;;;5116952;28;20012;-78
2023/07/06 04:52:51;;;;;;;4.72;2.38;;;22.90;80.40;;;;;;5116800;28;20380;-78
2023/07/06 04:55:22;;;;;;;5.80;2.55;;;22.90;80.60;;;;;;5098561;28;20031;-78
2023/07/06 04:57:51;;;;;;;3.75;2.30;;;22.90;80.70;;;;;;5098864;28;20376;-78
2023/07/06 05:00:18;;;;;;;3.50;2.10;;;22.90;80.50;;;;;;5117083;28;20024;-78
2023/07/06 05:02:46;;;;;;;3.65;1.85;;;22.90;80.20;;;;;;5117130;28;20032;-78
2023/07/06 05:05:13;;;;;;;3.85;1.98;;;23.00;80.10;;;;;;5116845;28;20077;-78
2023/07/06 05:07:40;;;;;;;3.20;1.80;;;23.00;80.00;;;;;;5116713;28;20015;-77
2023/07/06 05:10:06;;;;;;;6.03;1.77;;;23.00;79.50;;;;;;5098193;28;20020;-78
2023/07/06 05:12:32;;;;;;;3.22;1.70;;;23.00;78.70;;;;;;5116585;28;20124;-78
2023/07/06 05:14:58;;;;;;;2.33;1.45;;;23.10;78.00;;;;;;5116549;28;20068;-78
2023/07/06 05:17:24;;;;;;;2.97;1.23;;;23.10;77.50;;;;;;5116631;28;20077;-78
2023/07/06 05:19:50;;;;;;;2.03;1.42;;;23.10;77.50;;;;;;5102694;28;20024;-79
2023/07/06 05:22:18;;;;;;;2.45;1.50;;;23.20;77.40;;;;;;5096208;28;20046;-77
2023/07/06 05:24:44;;;;;;;2.75;1.40;;;23.30;77.60;;;;;;5096099;28;20138;-78
2023/07/06 05:27:10;;;;;;;2.63;1.10;;;23.30;76.90;;;;;;5096167;28;20103;-77
2023/07/06 05:29:36;;;;;;;3.28;1.20;;;23.40;76.30;;;;;;5097696;28;20126;-78
2023/07/06 05:32:02;;;;;;;4.15;1.20;;;23.40;75.60;;;;;;5095907;28;20024;-78
2023/07/06 05:34:29;;;;;;;2.90;1.23;;;23.40;75.20;;;;;;5095681;28;20043;-78
2023/07/06 05:36:55;;;;;;;2.15;1.17;;;23.40;75.10;;;;;;5095852;28;20021;-80
2023/07/06 05:39:21;;;;;;;2.40;1.20;;;23.50;74.70;;;;;;5096138;28;20039;-79
2023/07/06 05:41:47;;;;;;;4.28;1.20;;;23.50;74.60;;;;;;5095848;28;20024;-79
2023/07/06 05:44:13;;;;;;;1.98;1.40;;;23.60;74.90;;;;;;5095697;28;20024;-79
2023/07/06 05:46:39;;;;;;;3.55;1.48;;;23.60;75.20;;;;;;5095480;28;20054;-78
2023/07/06 05:49:05;;;;;;;2.20;1.25;;;23.60;75.30;;;;;;5095405;28;20028;-79
2023/07/06 05:51:31;;;;;;;3.83;1.27;;;23.60;75.10;;;;;;5095264;28;20070;-79
2023/07/06 05:53:58;;;;;;;3.53;1.05;;;23.70;75.10;;;;;;5076500;28;20524;-79
2023/07/06 05:56:24;;;;;;;3.97;1.55;;;23.70;74.80;;;;;;5076340;28;20024;-78
2023/07/06 05:58:51;;;;;;;3.50;1.00;;;23.70;74.60;;;;;;5095087;28;20038;-79
2023/07/06 06:01:23;;;;;;;3.78;1.00;;;23.70;74.50;;;;;;5095346;28;20051;-79
2023/07/06 06:03:49;;;;;;;3.10;1.10;;;23.70;74.40;;;;;;5095386;28;20028;-76
2023/07/06 06:06:15;;;;;;;1.58;0.95;;;23.70;74.30;;;;;;5094721;28;20089;-78
2023/07/06 06:08:41;;;;;;;2.97;1.00;;;23.70;74.40;;;;;;5095029;28;20023;-78
2023/07/06 06:11:07;;;;;;;2.22;1.00;;;23.80;74.20;;;;;;5101432;28;20130;-78
2023/07/06 06:13:33;;;;;;;1.73;1.20;;;23.80;73.90;;;;;;5115258;28;20488;-81
2023/07/06 06:15:58;;;;;;;2.80;1.23;;;23.80;73.90;;;;;;5115129;28;20047;-80
2023/07/06 06:18:25;;;;;;;3.38;1.10;;;23.90;74.00;;;;;;5115272;28;20106;-80
2023/07/06 06:20:51;;;;;;;3.28;1.00;;;23.90;73.80;;;;;;5115117;28;20031;-79
2023/07/06 06:23:20;;;;;;;4.53;0.90;;;23.90;73.50;;;;;;5114790;28;20024;-80
2023/07/06 06:25:46;;;;;;;3.58;1.05;;;23.90;73.60;;;;;;5114728;28;20076;-81
2023/07/06 06:28:12;;;;;;;1.48;0.90;;;24.00;73.50;;;;;;5113864;28;20026;-81
2023/07/06 06:30:40;;;;;;;3.15;1.17;;;24.00;73.40;;;;;;5113035;28;20027;-80
2023/07/06 06:33:09;;;;;;;2.03;1.05;;;24.00;73.30;;;;;;5114832;28;20481;-76
2023/07/06 06:35:35;;;;;;;2.33;1.15;;;24.00;73.30;;;;;;5115161;28;20055;-81
2023/07/06 06:38:05;;;;;;;3.53;1.00;;;24.10;73.40;;;;;;5113951;28;20066;-80
2023/07/06 06:40:32;;;;;;;1.27;1.05;;;24.20;73.00;;;;;;5114064;28;20020;-80
2023/07/06 06:43:00;;;;;;;2.78;1.13;;;24.20;72.50;;;;;;5114594;28;20028;-81
2023/07/06 06:45:26;;;;;;;1.42;1.15;;;24.20;72.60;;;;;;5114591;28;20059;-78
2023/07/06 06:47:52;;;;;;;4.25;1.10;;;24.20;72.40;;;;;;5114164;28;20456;-79
2023/07/06 06:50:20;;;;;;;4.18;1.20;;;24.30;71.80;;;;;;5114547;28;20023;-80
2023/07/06 06:52:46;;;;;;;4.95;1.10;;;24.30;71.60;;;;;;5113920;28;20019;-81
2023/07/06 06:55:13;;;;;;;1.85;1.13;;;24.30;71.50;;;;;;5113901;28;20020;-80
2023/07/06 06:57:39;;;;;;;1.92;1.10;;;24.30;72.00;;;;;;5114592;28;20031;-80
2023/07/06 07:00:09;;;;;;;4.80;1.00;;;24.40;72.20;;;;;;5114685;28;20530;-80
2023/07/06 07:02:38;;;;;;;1.40;1.08;;;24.40;72.30;;;;;;5114892;28;20024;-80
2023/07/06 07:05:05;;;;;;;4.18;1.40;;;24.40;72.10;;;;;;5114041;28;20385;-85
2023/07/06 07:07:31;;;;;;;1.80;1.30;;;24.40;71.40;;;;;;5114534;28;20027;-77
2023/07/06 07:09:56;;;;;;;1.85;1.23;;;24.40;71.00;;;;;;5114563;28;20028;-76
2023/07/06 07:12:22;;;;;;;3.63;1.05;;;24.40;70.80;;;;;;5114561;28;20465;-76
2023/07/06 07:14:48;;;;;;;2.58;1.40;;;24.40;70.60;;;;;;5114925;28;20039;-77
2023/07/06 07:17:14;;;;;;;2.50;1.30;;;24.40;70.30;;;;;;5114391;28;20031;-79
2023/07/06 07:19:41;;;;;;;3.63;1.30;;;24.50;70.40;;;;;;5095759;28;20438;-84
2023/07/06 07:22:06;;;;;;;2.75;1.20;;;24.50;70.30;;;;;;5113640;28;20491;-77
2023/07/06 07:24:33;;;;;;;2.90;1.73;;;24.50;70.20;;;;;;5114157;28;20028;-80
2023/07/06 07:27:00;;;;;;;2.47;1.63;;;24.50;69.50;;;;;;5114216;28;20028;-79
2023/07/06 07:29:26;;;;;;;3.50;1.10;;;24.50;69.10;;;;;;5114373;28;20027;-79
2023/07/06 07:31:52;;;;;;;4.63;1.27;;;24.60;69.00;;;;;;5114329;28;20016;-80
2023/07/06 07:34:19;;;;;;;4.03;1.25;;;24.60;69.20;;;;;;5095943;28;20167;-80
2023/07/06 07:36:45;;;;;;;2.30;1.25;;;24.60;69.50;;;;;;5114376;28;20027;-80
2023/07/06 07:39:11;;;;;;;4.85;1.42;;;24.60;69.10;;;;;;5114001;28;20087;-79
2023/07/06 07:41:37;;;;;;;2.08;1.13;;;24.70;68.80;;;;;;5113683;28;20031;-77
2023/07/06 07:44:03;;;;;;;2.80;1.35;;;24.70;68.80;;;;;;5114268;28;20023;-80
2023/07/06 07:46:29;;;;;;;1.63;1.17;;;24.70;68.60;;;;;;5114183;28;20498;-78
2023/07/06 07:48:56;;;;;;;1.98;1.33;;;24.80;68.90;;;;;;5095721;28;20035;-78
2023/07/06 07:51:30;;;;;;;2.20;1.15;;;24.90;68.60;;;;;;5113701;28;20021;-77
2023/07/06 07:53:56;;;;;;;4.60;1.30;;;24.90;68.00;;;;;;5113733;28;20032;-78
2023/07/06 07:56:24;;;;;;;3.08;1.30;;;24.90;67.60;;;;;;5113606;28;20065;-80
2023/07/06 07:58:50;;;;;;;3.65;1.33;;;25.00;67.30;;;;;;5113873;28;20053;-82
2023/07/06 08:01:24;;;;;;;2.25;1.20;;;25.00;68.50;;;;;;5113921;28;20023;-78
2023/07/06 08:03:52;;;;;;;1.73;1.25;;;25.00;68.00;;;;;;5113855;28;20114;-79
2023/07/06 08:06:19;;;;;;;3.42;1.25;;;25.10;67.40;;;;;;5113766;28;20019;-77
2023/07/06 08:08:45;;;;;;;1.10;1.00;;;25.00;66.80;;;;;;5113808;28;20038;-81
2023/07/06 08:11:17;;;;;;;3.10;1.25;;;25.00;66.60;;;;;;5113632;28;20016;-83
2023/07/06 08:13:50;;;;;;;2.78;1.60;;;25.10;67.10;;;;;;5095150;28;20042;-82
2023/07/06 08:16:16;;;;;;;6.07;1.67;;;25.10;66.90;;;;;;5095222;28;20054;-84
2023/07/06 08:18:43;;;;;;;4.57;1.52;;;25.10;66.40;;;;;;5112835;28;20048;-83
2023/07/06 08:21:10;;;;;;;5.13;1.60;;;25.10;66.20;;;;;;5113126;28;20069;-83
2023/07/06 08:23:40;;;;;;;4.15;1.50;;;25.10;66.00;;;;;;5113049;28;20027;-80
2023/07/06 08:26:08;;;;;;;7.20;1.55;;;25.20;66.50;;;;;;5113090;28;20024;-82
2023/07/06 08:28:34;;;;;;;2.20;1.30;;;25.20;66.80;;;;;;5113392;28;20377;-83
2023/07/06 08:31:02;;;;;;;4.13;1.90;;;25.30;66.60;;;;;;5113122;28;20106;-82
2023/07/06 08:33:32;;;;;;;1.92;1.33;;;25.30;65.60;;;;;;5112808;28;20028;-82
2023/07/06 08:35:58;;;;;;;4.13;1.20;;;25.40;65.40;;;;;;5110709;28;20012;-81
2023/07/06 08:38:24;;;;;;;4.28;1.35;;;25.50;66.10;;;;;;5112685;28;20019;-82
2023/07/06 08:40:52;;;;;;;2.30;1.50;;;25.60;65.40;;;;;;5109044;28;20084;-77
2023/07/06 08:43:21;;;;;;;2.30;1.48;;;25.60;65.30;;;;;;5092377;28;20016;-82
2023/07/06 08:45:52;;;;;;;2.33;1.30;;;25.70;65.30;;;;;;5093991;28;20485;-81
2023/07/06 08:48:21;;;;;;;5.72;1.65;;;25.70;65.80;;;;;;5112786;28;20039;-82
2023/07/06 08:50:51;;;;;;;6.07;1.48;;;25.70;65.30;;;;;;5104230;28;20027;-76
2023/07/06 08:53:20;;;;;;;3.15;1.52;;;25.70;65.00;;;;;;5092047;28;20028;-81
2023/07/06 08:55:49;;;;;;;2.15;1.50;;;25.70;64.60;;;;;;5092598;28;20582;-82
2023/07/06 08:58:26;;;;;;;3.72;1.70;;;25.80;64.50;;;;;;5092187;28;20024;-83
2023/07/06 09:01:02;;;;;;;5.53;1.52;;;25.80;64.10;;;;;;5092224;28;20028;-82
2023/07/06 09:03:35;;;;;;;4.65;1.58;;;25.80;64.60;;;;;;5092649;28;20020;-82
2023/07/06 09:06:01;;;;;;;4.90;1.50;;;25.80;64.80;;;;;;5092627;28;20549;-81
2023/07/06 09:08:28;;;;;;;3.00;1.60;;;25.90;64.70;;;;;;5092752;28;20111;-82
2023/07/06 09:10:54;;;;;;;5.22;1.40;;;25.90;65.60;;;;;;5092500;28;20028;-83
2023/07/06 09:13:22;;;;;;;1.58;1.40;;;26.00;65.90;;;;;;5092492;28;20559;-82
2023/07/06 09:16:03;;;;;;;2.55;1.40;;;26.10;64.20;;;;;;5076140;22;20131;-81
2023/07/06 09:18:31;;;;;;;3.05;1.52;;;26.10;63.60;;;;;;5036871;28;20052;-82
2023/07/06 09:20:59;;;;;;;5.53;1.83;;;26.20;63.70;;;;;;5032543;28;20050;-81
2023/07/06 09:23:25;;;;;;;6.70;1.50;;;26.20;63.50;;;;;;5032032;28;20017;-82
2023/07/06 09:25:54;;;;;;;3.50;1.92;;;26.30;62.80;;;;;;5031986;28;20057;-80
2023/07/06 09:28:23;;;;;;;3.00;1.52;;;26.40;61.40;;;;;;5032674;28;20058;-83
2023/07/06 09:31:04;;;;;;;2.63;1.95;;;26.40;61.20;;;;;;5036308;28;20021;-83
2023/07/06 09:33:30;;;;;;;2.67;1.50;;;26.30;61.00;;;;;;5035857;28;20391;-84
2023/07/06 09:35:57;;;;;;;3.33;1.52;;;26.40;60.50;;;;;;5035558;28;20498;-83
2023/07/06 09:38:27;;;;;;;9.25;1.67;;;26.30;60.60;;;;;;5035851;28;20083;-83
2023/07/06 09:40:54;;;;;;;8.57;1.75;;;26.20;61.10;;;;;;5036095;28;20486;-84
2023/07/06 09:43:27;;;;;;;2.85;1.60;;;26.20;61.40;;;;;;5035862;28;20022;-83
2023/07/06 09:45:54;;;;;;;6.75;1.50;;;26.20;61.10;;;;;;5035547;28;20021;-84
2023/07/06 09:48:38;;;;;;;8.20;1.90;;;26.20;61.70;;;;;;5035457;28;20479;-83
2023/07/06 09:51:14;;;;;;;2.15;1.60;;;26.30;61.70;;;;;;5035611;28;20032;-82
2023/07/06 09:54:28;;;;;;;5.10;1.73;;;26.20;61.20;;;;;;5035826;28;20037;-74
2023/07/06 09:56:54;;;;;;;2.38;1.60;;;26.20;61.50;;;;;;5028441;28;20499;-74
2023/07/06 09:59:19;;;;;;;3.67;1.70;;;26.20;61.40;;;;;;5035708;28;20056;-73
2023/07/06 10:02:05;;;;;;;5.38;1.80;;;26.20;61.40;;;;;;5017778;28;20084;-73
2023/07/06 10:04:51;;;;;;;5.82;2.17;;;26.10;61.70;;;;;;5035140;28;20112;-73
2023/07/06 10:07:58;;;;;;;4.15;1.70;;;26.10;61.60;;;;;;5034935;28;20018;-73
2023/07/06 10:10:39;;;;;;;4.53;1.77;;;26.00;61.00;;;;;;5035303;28;20030;-73
2023/07/06 10:13:26;;;;;;;3.67;2.37;;;26.00;61.60;;;;;;5017670;28;20425;-73
2023/07/06 10:16:07;;;;;;;6.95;1.80;;;25.90;61.40;;;;;;5035071;28;20068;-75
2023/07/06 10:18:51;;;;;;;2.40;1.80;;;25.90;61.60;;;;;;5034829;28;20039;-74
2023/07/06 10:21:24;;;;;;;5.13;1.95;;;25.90;61.10;;;;;;5034659;28;20026;-73
2023/07/06 10:24:12;;;;;;;2.78;1.60;;;25.90;61.10;;;;;;5035035;28;20532;-73
2023/07/06 10:26:48;;;;;;;5.05;1.70;;;25.80;61.30;;;;;;5035102;28;20029;-73
2023/07/06 10:29:23;;;;;;;5.63;2.17;;;25.80;61.60;;;;;;5034975;28;20080;-73
2023/07/06 10:31:59;;;;;;;4.25;2.03;;;25.70;62.10;;;;;;5035025;28;20151;-74
2023/07/06 10:34:35;;;;;;;4.18;1.67;;;25.70;62.50;;;;;;5034573;28;20479;-73
2023/07/06 10:37:03;;;;;;;4.07;1.88;;;25.70;62.50;;;;;;5034735;28;20076;-73
2023/07/06 10:39:29;;;;;;;3.75;2.05;;;25.70;62.50;;;;;;5016711;28;20026;-73
2023/07/06 10:42:02;;;;;;;7.50;1.88;;;25.70;62.40;;;;;;5033944;28;20036;-74
2023/07/06 10:44:41;;;;;;;4.80;2.20;;;25.60;62.50;;;;;;5034841;28;20024;-73
2023/07/06 10:47:08;;;;;;;7.57;1.60;;;25.60;63.90;;;;;;5034409;28;20028;-74
2023/07/06 10:50:14;;;;;;;6.20;2.03;;;25.60;65.10;;;;;;5034420;28;20022;-73
2023/07/06 10:52:42;;;;;;;4.82;2.00;;;25.50;66.00;;;;;;5032561;28;20033;-72
2023/07/06 10:55:18;;;;;;;2.83;1.83;;;25.50;66.60;;;;;;5033953;28;20092;-72
2023/07/06 10:57:53;;;;;;;3.47;1.70;;;25.40;67.80;;;;;;5034141;28;20105;-73
2023/07/06 11:00:29;;;;;;;3.55;1.98;;;25.40;67.90;;;;;;5033774;28;20356;-73
2023/07/06 11:02:56;;;;;;;4.22;1.90;;;25.40;68.10;;;;;;5034247;28;20060;-73
2023/07/06 11:05:29;;;;;;;2.17;1.50;;;25.30;68.30;;;;;;5034252;28;20029;-72
2023/07/06 11:07:57;;;;;;;8.63;2.65;;;25.30;68.20;;;;;;5034150;28;20053;-73
2023/07/06 11:10:32;;;;;;;4.07;2.30;;;25.20;69.20;;;;;;5033979;28;20127;-73
2023/07/06 11:13:01;;;;;;;5.82;2.03;;;25.20;70.40;;;;;;5034069;28;20060;-73
2023/07/06 11:15:35;;;;;;;3.53;2.00;;;25.20;72.20;;;;;;5033852;28;20073;-73
2023/07/06 11:18:23;;;;;;;7.05;2.17;;;25.10;73.60;;;;;;5033769;28;20488;-73
2023/07/06 11:21:02;;;;;;;10.23;2.55;;;25.00;75.40;;;;;;5033461;28;20104;-73
2023/07/06 11:23:42;;;;;;;7.45;2.28;;;24.90;75.80;;;;;;5033620;28;20030;-73
2023/07/06 11:26:25;;;;;;;10.60;3.22;;;24.70;76.40;;;;;;5033890;28;20060;-73
2023/07/06 11:28:53;;;;;;;4.70;2.30;;;24.60;77.90;;;;;;5033708;28;20018;-73
2023/07/06 11:31:47;;;;;;;3.60;2.28;;;24.50;79.10;;;;;;5033723;28;20037;-73
2023/07/06 11:34:28;;;;;;;5.07;2.40;;;24.50;79.30;;;;;;5033267;28;20030;-73
2023/07/06 11:37:00;;;;;;;3.38;1.90;;;24.40;79.20;;;;;;5033477;28;20436;-73
2023/07/06 11:39:40;;;;;;;5.27;2.40;;;24.30;79.60;;;;;;5033765;28;20029;-73
2023/07/06 11:42:34;;;;;;;5.03;2.28;;;24.30;79.80;;;;;;5033317;28;20756;-74
2023/07/06 11:45:14;;;;;;;3.60;2.22;;;24.20;80.30;;;;;;5015754;28;20034;-74
2023/07/06 11:47:59;;;;;;;3.95;2.83;;;24.10;80.80;;;;;;5033592;28;20025;-74
2023/07/06 11:50:31;;;;;;;5.35;2.17;;;24.10;80.60;;;;;;5033551;28;20029;-73
2023/07/06 11:53:09;;;;;;;3.70;2.40;;;24.00;81.00;;;;;;5033330;28;20480;-73
2023/07/06 11:55:54;;;;;;;5.15;2.30;;;24.00;82.00;;;;;;5033260;28;20025;-73
2023/07/06 11:58:43;;;;;;;5.30;2.42;;;24.00;81.60;;;;;;5033321;28;20117;-73
2023/07/06 12:01:21;;;;;;;5.35;2.42;;;24.00;82.00;;;;;;5033204;28;20065;-74
2023/07/06 12:03:56;;;;;;;4.47;2.58;;;23.90;82.70;;;;;;5032844;28;20021;-73
2023/07/06 12:06:22;;;;;;;7.63;3.30;;;23.90;84.10;;;;;;5032982;28;20025;-73
2023/07/06 12:08:48;;;;;;;6.28;2.70;;;23.90;85.10;;;;;;5033214;28;20111;-73
2023/07/06 12:11:22;;;;;;;6.95;2.90;;;23.90;85.70;;;;;;5033204;28;20090;-73
2023/07/06 12:13:54;;;;;;;3.47;2.28;;;23.90;86.40;;;;;;5032957;28;20029;-74
2023/07/06 12:16:27;;;;;;;3.85;2.40;;;23.90;86.20;;;;;;5032701;28;20049;-73
2023/07/06 12:19:07;;;;;;;7.07;2.70;;;23.90;85.20;;;;;;5032812;28;20467;-75
2023/07/06 12:21:47;;;;;;;10.00;2.30;;;23.90;84.40;;;;;;5033212;28;20022;-72
2023/07/06 12:24:16;;;;;;;7.35;2.70;;;23.90;84.50;;;;;;5033044;28;20021;-73
2023/07/06 12:26:47;;;;;;;4.95;2.42;;;24.00;84.90;;;;;;5033069;28;20025;-74
2023/07/06 12:29:15;;;;;;;4.32;2.40;;;23.90;84.60;;;;;;5032736;28;20034;-72
2023/07/06 12:31:43;;;;;;;2.95;2.53;;;23.90;84.70;;;;;;5032515;28;20029;-72
2023/07/06 12:34:09;;;;;;;4.40;2.28;;;23.90;85.10;;;;;;5032788;28;20041;-72
2023/07/06 12:36:38;;;;;;;7.80;2.63;;;23.90;86.00;;;;;;5032992;28;20060;-73
2023/07/06 12:39:06;;;;;;;5.10;2.72;;;23.90;85.70;;;;;;5032853;28;20112;-72
2023/07/06 12:41:37;;;;;;;5.15;3.67;;;23.90;85.60;;;;;;5032837;28;20376;-73
2023/07/06 12:44:11;;;;;;;7.22;4.10;;;23.90;85.90;;;;;;5013485;28;20062;-74
2023/07/06 12:46:36;;;;;;;6.07;2.70;;;23.90;86.00;;;;;;5032285;28;20021;-72
2023/07/06 12:49:10;;;;;;;7.28;2.50;;;23.90;86.50;;;;;;5032150;28;20040;-73
2023/07/06 12:51:40;;;;;;;4.10;2.60;;;23.90;86.00;;;;;;5032294;28;20022;-73
2023/07/06 12:54:09;;;;;;;3.58;2.30;;;23.90;85.60;;;;;;5032324;28;20035;-73
2023/07/06 12:56:38;;;;;;;7.18;2.40;;;23.90;85.20;;;;;;5032206;28;20075;-73
2023/07/06 12:59:04;;;;;;;5.45;2.85;;;23.90;85.30;;;;;;5032019;28;20029;-75
2023/07/06 13:01:45;;;;;;;5.28;2.45;;;24.00;85.20;;;;;;5032068;28;20028;-73
2023/07/06 13:04:13;;;;;;;5.28;2.42;;;24.00;84.20;;;;;;5034053;28;20021;-73